createdAt,value
2018-07-20T00:02:20.187Z,22.95
2018-07-20T00:04:49.256Z,22.84
2018-07-20T00:07:18.345Z,22.70
2018-07-20T00:09:47.605Z,22.58
2018-07-20T00:12:16.712Z,22.48
2018-07-20T00:14:45.902Z,22.38
2018-07-20T00:17:15.008Z,22.27
2018-07-20T00:19:44.191Z,22.17
2018-07-20T00:22:13.395Z,22.09
2018-07-20T00:24:42.457Z,22.05
2018-07-20T00:27:11.582Z,21.99
2018-07-20T00:29:40.805Z,21.97
2018-07-20T00:32:09.945Z,21.94
2018-07-20T00:34:39.035Z,21.91
2018-07-20T00:37:08.175Z,21.90
2018-07-20T00:39:37.273Z,21.88
2018-07-20T00:42:06.375Z,21.86
2018-07-20T00:44:35.444Z,21.87
2018-07-20T00:47:04.582Z,21.87
2018-07-20T00:49:33.759Z,21.87
2018-07-20T00:52:02.856Z,21.87
2018-07-20T00:54:31.955Z,21.87
2018-07-20T00:57:01.045Z,21.86
2018-07-20T00:59:30.171Z,21.86
2018-07-20T01:01:59.345Z,21.86
2018-07-20T01:04:28.461Z,21.86
2018-07-20T01:06:57.613Z,21.86
2018-07-20T01:09:26.764Z,21.85
2018-07-20T01:11:55.842Z,21.80
2018-07-20T01:14:24.945Z,21.80
2018-07-20T01:16:54.044Z,21.80
2018-07-20T01:19:23.238Z,21.79
2018-07-20T01:21:52.125Z,21.77
2018-07-20T01:24:21.203Z,21.74
2018-07-20T01:26:50.649Z,21.69
2018-07-20T01:29:19.784Z,21.62
2018-07-20T01:31:48.868Z,21.55
2018-07-20T01:34:17.964Z,21.48
2018-07-20T01:36:47.100Z,21.41
2018-07-20T01:39:16.190Z,21.36
2018-07-20T01:41:45.276Z,21.32
2018-07-20T01:44:14.372Z,21.26
2018-07-20T01:46:43.467Z,21.22
2018-07-20T01:49:12.569Z,21.19
2018-07-20T01:51:41.445Z,21.20
2018-07-20T01:54:10.592Z,21.17
2018-07-20T01:56:39.756Z,21.16
2018-07-20T01:59:08.902Z,21.16
2018-07-20T02:01:38.055Z,21.12
2018-07-20T02:04:07.636Z,21.11
2018-07-20T02:06:36.702Z,21.07
2018-07-20T02:09:09.160Z,21.05
2018-07-20T02:11:38.274Z,21.02
2018-07-20T02:14:07.666Z,21.02
2018-07-20T02:16:36.747Z,20.99
2018-07-20T02:19:05.848Z,20.95
2018-07-20T02:21:34.986Z,20.92
2018-07-20T02:24:04.009Z,20.90
2018-07-20T02:26:33.301Z,20.90
2018-07-20T02:29:02.748Z,20.87
2018-07-20T02:31:31.833Z,20.87
2018-07-20T02:34:00.947Z,20.85
2018-07-20T02:36:30.060Z,20.83
2018-07-20T02:38:59.206Z,20.78
2018-07-20T02:41:28.388Z,20.73
2018-07-20T02:43:57.560Z,20.68
2018-07-20T02:46:26.699Z,20.65
2018-07-20T02:48:55.858Z,20.63
2018-07-20T02:51:25.052Z,20.60
2018-07-20T02:53:54.178Z,20.59
2018-07-20T02:56:23.415Z,20.55
2018-07-20T02:58:52.658Z,20.53
2018-07-20T03:01:21.867Z,20.53
2018-07-20T03:03:51.032Z,20.53
2018-07-20T03:06:20.212Z,20.55
2018-07-20T03:08:49.335Z,20.56
2018-07-20T03:11:19.324Z,20.59
2018-07-20T03:13:48.528Z,20.65
2018-07-20T03:16:17.759Z,20.68
2018-07-20T03:18:46.869Z,20.69
2018-07-20T03:21:16.033Z,20.71
2018-07-20T03:23:45.289Z,20.74
2018-07-20T03:26:14.457Z,20.77
2018-07-20T03:28:43.783Z,20.82
2018-07-20T03:31:13.016Z,20.86
2018-07-20T03:33:42.208Z,20.90
2018-07-20T03:36:11.433Z,20.92
2018-07-20T03:38:40.611Z,20.91
2018-07-20T03:41:09.835Z,20.92
2018-07-20T03:43:39.098Z,20.91
2018-07-20T03:46:08.276Z,20.89
2018-07-20T03:48:37.435Z,20.88
2018-07-20T03:51:06.837Z,20.89
2018-07-20T03:53:36.084Z,20.85
2018-07-20T03:56:05.241Z,20.83
2018-07-20T03:58:34.395Z,20.80
2018-07-20T04:01:03.251Z,20.81
2018-07-20T04:03:32.354Z,20.82
2018-07-20T04:06:01.524Z,20.84
2018-07-20T04:08:30.592Z,20.89
2018-07-20T04:11:02.815Z,20.91
2018-07-20T04:13:31.964Z,20.95
2018-07-20T04:16:01.059Z,20.99
2018-07-20T04:18:30.195Z,21.05
2018-07-20T04:20:59.472Z,21.12
2018-07-20T04:23:28.627Z,21.16
2018-07-20T04:25:57.742Z,21.19
2018-07-20T04:28:26.872Z,21.21
2018-07-20T04:30:56.036Z,21.23
2018-07-20T04:33:25.184Z,21.24
2018-07-20T04:35:54.320Z,21.23
2018-07-20T04:38:23.456Z,21.25
2018-07-20T04:40:52.641Z,21.27
2018-07-20T04:43:21.777Z,21.33
2018-07-20T04:45:50.904Z,21.41
2018-07-20T04:48:20.012Z,21.52
2018-07-20T04:50:49.159Z,21.64
2018-07-20T04:53:18.297Z,21.78
2018-07-20T04:55:47.388Z,21.97
2018-07-20T04:58:16.508Z,22.18
2018-07-20T05:00:45.663Z,22.43
2018-07-20T05:03:14.831Z,22.72
2018-07-20T05:05:43.994Z,23.07
2018-07-20T05:08:13.180Z,23.40
2018-07-20T05:10:42.532Z,23.72
2018-07-20T05:13:11.729Z,24.02
2018-07-20T05:15:40.948Z,24.31
2018-07-20T05:18:10.193Z,24.58
2018-07-20T05:20:39.430Z,24.79
2018-07-20T05:23:08.538Z,25.00
2018-07-20T05:25:37.856Z,25.29
2018-07-20T05:28:08.106Z,25.61
2018-07-20T05:30:37.909Z,25.93
2018-07-20T05:33:08.937Z,26.22
2018-07-20T05:35:38.340Z,26.55
2018-07-20T05:38:07.703Z,26.91
2018-07-20T05:40:36.769Z,27.27
2018-07-20T05:43:05.872Z,27.58
2018-07-20T05:45:34.988Z,27.80
2018-07-20T05:48:04.115Z,28.00
2018-07-20T05:50:33.229Z,28.16
2018-07-20T05:53:02.379Z,28.30
2018-07-20T05:55:31.495Z,28.47
2018-07-20T05:58:00.571Z,28.70
2018-07-20T06:00:30.047Z,28.92
2018-07-20T06:02:59.100Z,29.13
2018-07-20T06:05:28.257Z,29.36
2018-07-20T06:07:57.412Z,29.61
2018-07-20T06:10:26.502Z,29.92
2018-07-20T06:12:55.692Z,30.20
2018-07-20T06:15:25.183Z,30.46
2018-07-20T06:17:54.315Z,30.77
2018-07-20T06:20:23.427Z,31.06
2018-07-20T06:22:52.641Z,31.27
2018-07-20T06:25:22.666Z,31.49
2018-07-20T06:27:52.047Z,31.75
2018-07-20T06:30:20.890Z,32.02
2018-07-20T06:32:50.040Z,32.24
2018-07-20T06:35:19.121Z,32.45
2018-07-20T06:37:48.221Z,32.72
2018-07-20T06:40:17.367Z,33.13
2018-07-20T06:42:46.532Z,33.50
2018-07-20T06:45:16.657Z,34.00
2018-07-20T06:47:46.032Z,34.53
2018-07-20T06:50:18.293Z,34.98
2018-07-20T06:52:48.588Z,35.28
2018-07-20T06:55:17.823Z,35.58
2018-07-20T06:57:47.041Z,35.89
2018-07-20T07:00:16.259Z,36.28
2018-07-20T07:02:45.465Z,36.50
2018-07-20T07:05:14.561Z,36.88
2018-07-20T07:07:43.788Z,37.31
2018-07-20T07:10:13.052Z,37.74
2018-07-20T07:12:42.918Z,38.15
2018-07-20T07:15:12.314Z,38.50
2018-07-20T07:17:41.513Z,38.86
2018-07-20T07:20:10.752Z,39.21
2018-07-20T07:22:40.073Z,39.31
2018-07-20T07:25:09.506Z,39.48
2018-07-20T07:27:39.132Z,39.66
2018-07-20T07:30:08.421Z,39.87
2018-07-20T07:32:37.836Z,40.13
2018-07-20T07:35:07.420Z,40.39
2018-07-20T07:37:36.863Z,40.69
2018-07-20T07:40:06.011Z,40.83
2018-07-20T07:42:35.119Z,40.82
2018-07-20T07:45:04.792Z,40.92
2018-07-20T07:47:33.921Z,41.04
2018-07-20T07:50:03.396Z,40.98
2018-07-20T07:52:32.589Z,40.86
2018-07-20T07:55:02.013Z,40.62
2018-07-20T07:57:31.193Z,40.36
2018-07-20T08:00:00.314Z,40.15
2018-07-20T08:02:29.525Z,40.07
2018-07-20T08:04:58.680Z,39.96
2018-07-20T08:07:27.760Z,39.84
2018-07-20T08:09:57.077Z,39.71
2018-07-20T08:12:25.884Z,39.67
2018-07-20T08:14:55.018Z,39.65
2018-07-20T08:17:24.129Z,39.71
2018-07-20T08:19:54.087Z,39.66
2018-07-20T08:22:23.719Z,39.56
2018-07-20T08:24:53.315Z,39.57
2018-07-20T08:27:22.431Z,39.53
2018-07-20T08:29:51.667Z,39.30
2018-07-20T08:32:20.802Z,39.04
2018-07-20T08:34:49.906Z,39.01
2018-07-20T08:37:19.072Z,39.04
2018-07-20T08:39:48.137Z,39.14
2018-07-20T08:42:17.281Z,39.28
2018-07-20T08:44:46.523Z,39.31
2018-07-20T08:47:15.768Z,38.97
2018-07-20T08:49:44.947Z,38.48
2018-07-20T08:52:14.201Z,38.04
2018-07-20T08:54:43.265Z,37.76
2018-07-20T08:57:12.421Z,37.44
2018-07-20T08:59:41.765Z,37.11
2018-07-20T09:02:11.299Z,37.00
2018-07-20T09:04:40.575Z,37.05
2018-07-20T09:07:09.792Z,37.11
2018-07-20T09:09:39.152Z,37.16
2018-07-20T09:12:08.491Z,37.25
2018-07-20T09:14:37.680Z,37.39
2018-07-20T09:17:06.770Z,37.42
2018-07-20T09:19:36.057Z,37.31
2018-07-20T09:22:05.201Z,37.00
2018-07-20T09:24:34.772Z,36.69
2018-07-20T09:27:04.041Z,36.36
2018-07-20T09:29:33.157Z,36.05
2018-07-20T09:32:02.260Z,35.82
2018-07-20T09:34:31.350Z,35.71
2018-07-20T09:37:00.549Z,35.67
2018-07-20T09:39:29.640Z,35.57
2018-07-20T09:41:58.800Z,35.44
2018-07-20T09:44:28.006Z,35.40
2018-07-20T09:46:57.049Z,35.52
2018-07-20T09:49:26.246Z,35.72
2018-07-20T09:51:55.337Z,35.95
2018-07-20T09:54:24.299Z,36.24
2018-07-20T09:56:53.444Z,36.61
2018-07-20T09:59:22.696Z,36.98
2018-07-20T10:01:51.885Z,37.24
2018-07-20T10:04:21.108Z,37.52
2018-07-20T10:06:50.252Z,37.62
2018-07-20T10:09:19.348Z,37.59
2018-07-20T10:11:48.412Z,37.66
2018-07-20T10:14:17.550Z,37.75
2018-07-20T10:16:46.739Z,37.84
2018-07-20T10:19:16.158Z,37.85
2018-07-20T10:21:45.422Z,37.65
2018-07-20T10:24:14.654Z,37.36
2018-07-20T10:26:43.844Z,37.12
2018-07-20T10:29:13.116Z,36.97
2018-07-20T10:31:42.368Z,36.92
2018-07-20T10:34:12.476Z,37.03
2018-07-20T10:36:41.705Z,37.15
2018-07-20T10:39:11.111Z,37.28
2018-07-20T10:41:40.389Z,37.37
2018-07-20T10:44:10.485Z,37.54
2018-07-20T10:46:40.051Z,37.76
2018-07-20T10:49:09.356Z,38.03
2018-07-20T10:51:38.538Z,38.25
2018-07-20T10:54:09.389Z,38.48
2018-07-20T10:56:42.024Z,38.67
2018-07-20T10:59:11.527Z,38.87
2018-07-20T11:01:41.544Z,39.08
2018-07-20T11:04:10.681Z,39.14
2018-07-20T11:06:40.464Z,38.96
2018-07-20T11:09:09.901Z,38.69
2018-07-20T11:11:39.295Z,38.58
2018-07-20T11:14:09.773Z,38.38
2018-07-20T11:16:40.001Z,38.03
2018-07-20T11:19:09.449Z,37.70
2018-07-20T11:21:38.820Z,37.50
2018-07-20T11:24:08.123Z,37.39
2018-07-20T11:26:37.496Z,37.10
2018-07-20T11:29:06.838Z,36.59
2018-07-20T11:31:36.018Z,36.21
2018-07-20T11:34:05.391Z,36.00
2018-07-20T11:36:34.610Z,35.87
2018-07-20T11:39:05.887Z,35.87
2018-07-20T11:41:35.080Z,35.92
2018-07-20T11:44:04.489Z,35.90
2018-07-20T11:46:33.639Z,35.97
2018-07-20T11:49:02.790Z,36.14
2018-07-20T11:51:32.096Z,36.28
2018-07-20T11:54:01.678Z,36.36
2018-07-20T11:56:30.788Z,36.15
2018-07-20T11:58:59.876Z,35.88
2018-07-20T12:01:29.115Z,35.63
2018-07-20T12:03:58.404Z,35.40
2018-07-20T12:06:27.742Z,35.18
2018-07-20T12:08:57.057Z,34.97
2018-07-20T12:11:26.268Z,34.75
2018-07-20T12:13:55.426Z,34.53
2018-07-20T12:16:24.601Z,34.40
2018-07-20T12:18:53.756Z,34.23
2018-07-20T12:21:22.986Z,34.08
2018-07-20T12:23:52.337Z,33.96
2018-07-20T12:26:21.483Z,33.95
2018-07-20T12:28:50.713Z,34.00
2018-07-20T12:31:19.943Z,34.08
2018-07-20T12:33:49.177Z,34.22
2018-07-20T12:36:18.314Z,34.40
2018-07-20T12:41:45.155Z,34.51
2018-07-20T12:44:14.491Z,34.48
2018-07-20T12:46:43.778Z,34.34
2018-07-20T12:49:12.910Z,34.23
2018-07-20T12:51:42.170Z,34.16
2018-07-20T12:54:12.130Z,34.08
2018-07-20T12:56:41.278Z,34.03
2018-07-20T12:59:10.608Z,33.98
2018-07-20T13:01:39.928Z,33.98
2018-07-20T13:04:09.230Z,34.13
2018-07-20T13:06:38.562Z,34.38
2018-07-20T13:09:10.896Z,34.65
2018-07-20T13:11:40.324Z,34.95
2018-07-20T13:14:10.462Z,35.12
2018-07-20T13:16:40.172Z,35.27
2018-07-20T13:19:10.253Z,35.40
2018-07-20T13:21:39.590Z,35.59
2018-07-20T13:24:09.695Z,35.69
2018-07-20T13:26:39.234Z,35.74
2018-07-20T13:29:08.454Z,35.63
2018-07-20T13:31:37.752Z,35.46
2018-07-20T13:34:06.933Z,35.34
2018-07-20T13:36:36.096Z,35.24
2018-07-20T13:39:09.687Z,35.10
2018-07-20T13:41:39.954Z,34.90
2018-07-20T13:44:09.351Z,34.76
2018-07-20T13:46:38.589Z,34.60
2018-07-20T13:49:27.568Z,34.50
2018-07-20T13:51:56.840Z,34.34
2018-07-20T13:54:26.788Z,34.25
2018-07-20T13:56:56.214Z,34.20
2018-07-20T13:59:25.619Z,34.19
2018-07-20T14:01:54.965Z,34.14
2018-07-20T14:04:24.345Z,34.07
2018-07-20T14:06:53.929Z,33.95
2018-07-20T14:09:23.210Z,33.80
2018-07-20T14:11:53.552Z,33.66
2018-07-20T14:14:24.067Z,33.55
2018-07-20T14:16:53.779Z,33.44
2018-07-20T14:19:24.208Z,33.40
2018-07-20T14:21:54.721Z,33.46
2018-07-20T14:24:25.212Z,33.58
2018-07-20T14:26:55.035Z,33.69
2018-07-20T14:29:24.687Z,33.74
2018-07-20T14:31:54.220Z,33.73
2018-07-20T14:34:23.352Z,33.71
2018-07-20T14:36:52.917Z,33.69
2018-07-20T14:39:22.239Z,33.69
2018-07-20T14:41:51.989Z,33.68
2018-07-20T14:44:21.439Z,33.71
2018-07-20T14:46:50.549Z,33.73
2018-07-20T14:49:19.706Z,33.76
2018-07-20T14:51:48.840Z,33.79
2018-07-20T14:54:17.971Z,33.79
2018-07-20T14:56:47.075Z,33.74
2018-07-20T14:59:16.325Z,33.63
2018-07-20T15:01:45.523Z,33.54
2018-07-20T15:04:15.517Z,33.49
2018-07-20T15:06:44.848Z,33.51
2018-07-20T15:09:14.061Z,33.55
2018-07-20T15:11:43.184Z,33.59
2018-07-20T15:14:12.467Z,33.59
2018-07-20T15:16:41.782Z,33.55
2018-07-20T15:19:11.367Z,33.49
2018-07-20T15:21:40.712Z,33.43
2018-07-20T15:24:11.145Z,33.38
2018-07-20T15:26:40.494Z,33.27
2018-07-20T15:29:09.904Z,33.18
2018-07-20T15:31:39.744Z,33.07
2018-07-20T15:34:09.030Z,33.03
2018-07-20T15:36:38.297Z,33.03
2018-07-20T15:39:10.732Z,33.08
2018-07-20T15:41:40.116Z,33.11
2018-07-20T15:44:09.377Z,33.11
2018-07-20T15:46:38.814Z,33.13
2018-07-20T15:49:07.982Z,33.15
2018-07-20T15:53:35.203Z,33.13
2018-07-20T15:54:06.648Z,33.13
2018-07-20T15:56:36.652Z,33.10
2018-07-20T15:59:07.229Z,33.04
2018-07-20T16:01:36.486Z,32.95
2018-07-20T16:04:05.558Z,32.87
2018-07-20T16:06:34.723Z,32.79
2018-07-20T16:09:04.302Z,32.72
2018-07-20T16:11:33.466Z,32.62
2018-07-20T16:14:02.556Z,32.54
2018-07-20T16:16:32.016Z,32.47
2018-07-20T16:19:01.079Z,32.38
2018-07-20T16:21:30.361Z,32.27
2018-07-20T16:23:59.441Z,32.16
2018-07-20T16:26:28.599Z,32.03
2018-07-20T16:28:57.831Z,31.84
2018-07-20T16:31:27.120Z,31.54
2018-07-20T16:33:56.659Z,31.25
2018-07-20T16:36:31.834Z,30.95
2018-07-20T16:39:01.177Z,30.61
2018-07-20T16:41:31.059Z,30.25
2018-07-20T16:44:00.407Z,29.90
2018-07-20T16:46:29.619Z,29.61
2018-07-20T16:48:58.774Z,29.27
2018-07-20T16:51:28.067Z,28.89
2018-07-20T16:53:57.419Z,28.57
2018-07-20T16:56:26.552Z,28.28
2018-07-20T16:58:55.684Z,28.04
2018-07-20T17:01:25.041Z,27.84
2018-07-20T17:03:54.807Z,27.70
2018-07-20T17:06:23.937Z,27.58
2018-07-20T17:08:53.230Z,27.49
2018-07-20T17:11:22.404Z,27.41
2018-07-20T17:13:51.665Z,27.37
2018-07-20T17:16:20.807Z,27.34
2018-07-20T17:18:49.907Z,27.32
2018-07-20T17:21:19.321Z,27.33
2018-07-20T17:23:48.935Z,27.36
2018-07-20T17:26:18.529Z,27.39
2018-07-20T17:28:48.677Z,27.42
2018-07-20T17:31:17.958Z,27.45
2018-07-20T17:33:47.444Z,27.51
2018-07-20T17:36:17.362Z,27.56
2018-07-20T17:38:46.936Z,27.62
2018-07-20T17:41:16.871Z,27.68
2018-07-20T17:43:46.291Z,27.71
2018-07-20T17:46:15.582Z,27.76
2018-07-20T17:48:44.757Z,27.78
2018-07-20T17:51:14.572Z,27.79
2018-07-20T17:53:43.803Z,27.77
2018-07-20T17:56:13.093Z,27.73
2018-07-20T17:58:42.364Z,27.71
2018-07-20T18:01:11.825Z,27.68
2018-07-20T18:03:41.389Z,27.67
2018-07-20T18:06:10.765Z,27.62
2018-07-20T18:08:42.056Z,27.60
2018-07-20T18:11:11.724Z,27.59
2018-07-20T18:13:41.066Z,27.59
2018-07-20T18:16:11.862Z,27.62
2018-07-20T18:18:41.199Z,27.63
2018-07-20T18:21:10.770Z,27.65
2018-07-20T18:23:39.989Z,27.66
2018-07-20T18:26:09.729Z,27.67
2018-07-20T18:28:40.014Z,27.67
2018-07-20T18:31:10.164Z,27.68
2018-07-20T18:33:39.524Z,27.69
2018-07-20T18:36:08.858Z,27.71
2018-07-20T18:38:38.089Z,27.71
2018-07-20T18:41:07.901Z,27.70
2018-07-20T18:43:37.220Z,27.69
2018-07-20T18:46:07.357Z,27.64
2018-07-20T18:48:37.612Z,27.60
2018-07-20T18:51:07.634Z,27.55
2018-07-20T18:53:37.680Z,27.50
2018-07-20T18:56:07.029Z,27.42
2018-07-20T18:58:36.076Z,27.33
2018-07-20T19:01:05.272Z,27.22
2018-07-20T19:03:34.485Z,27.11
2018-07-20T19:06:03.706Z,27.00
2018-07-20T19:08:32.912Z,26.89
2018-07-20T19:11:02.070Z,26.81
2018-07-20T19:13:31.205Z,26.72
2018-07-20T19:16:00.300Z,26.63
2018-07-20T19:18:29.393Z,26.53
2018-07-20T19:20:58.422Z,26.47
2018-07-20T19:23:27.573Z,26.40
2018-07-20T19:25:56.629Z,26.36
2018-07-20T19:28:25.710Z,26.29
2018-07-20T19:30:54.824Z,26.25
2018-07-20T19:33:23.984Z,26.21
2018-07-20T19:35:53.151Z,26.15
2018-07-20T19:38:22.281Z,26.12
2018-07-20T19:40:51.430Z,26.10
2018-07-20T19:43:20.548Z,26.07
2018-07-20T19:45:49.633Z,26.04
2018-07-20T19:48:18.767Z,26.03
2018-07-20T19:50:47.806Z,26.01
2018-07-20T19:53:17.015Z,26.01
2018-07-20T19:55:46.230Z,26.00
2018-07-20T19:58:15.569Z,25.99
2018-07-20T20:00:44.789Z,25.98
2018-07-20T20:03:13.957Z,26.00
2018-07-20T20:05:43.793Z,25.99
2018-07-20T20:08:13.012Z,26.00
2018-07-20T20:10:42.307Z,26.00
2018-07-20T20:13:11.737Z,26.00
2018-07-20T20:15:41.015Z,26.00
2018-07-20T20:18:10.286Z,26.01
2018-07-20T20:20:39.764Z,26.01
2018-07-20T20:23:09.089Z,26.04
2018-07-20T20:25:38.309Z,26.04
2018-07-20T20:28:08.281Z,26.04
2018-07-20T20:30:37.356Z,26.05
2018-07-20T20:33:06.429Z,26.06
2018-07-20T20:35:35.586Z,26.07
2018-07-20T20:38:04.704Z,26.07
2018-07-20T20:40:34.067Z,26.09
2018-07-20T20:43:03.147Z,26.13
2018-07-20T20:45:32.209Z,26.14
2018-07-20T20:48:01.290Z,26.16
2018-07-20T20:50:30.348Z,26.18
2018-07-20T20:52:59.647Z,26.18
2018-07-20T20:55:28.755Z,26.20
2018-07-20T20:57:57.793Z,26.21
2018-07-20T21:00:26.912Z,26.22
2018-07-20T21:02:55.989Z,26.22
2018-07-20T21:05:25.215Z,26.23
2018-07-20T21:07:54.287Z,26.23
2018-07-20T21:10:23.384Z,26.23
2018-07-20T21:12:52.544Z,26.22
2018-07-20T21:15:21.802Z,26.23
2018-07-20T21:17:51.142Z,26.24
2018-07-20T21:20:21.096Z,26.25
2018-07-20T21:22:50.320Z,26.23
2018-07-20T21:25:19.440Z,26.24
2018-07-20T21:27:48.668Z,26.23
2018-07-20T21:30:17.760Z,26.24
2018-07-20T21:32:46.840Z,26.25
2018-07-20T21:35:16.033Z,26.25
2018-07-20T21:37:45.360Z,26.23
2018-07-20T21:40:14.652Z,26.23
2018-07-20T21:42:43.951Z,26.22
2018-07-20T21:45:13.284Z,26.23
2018-07-20T21:47:42.947Z,26.22
2018-07-20T21:50:12.637Z,26.23
2018-07-20T21:52:42.766Z,26.24
2018-07-20T21:55:12.051Z,26.25
2018-07-20T21:57:41.174Z,26.23
2018-07-20T22:00:17.459Z,26.24
2018-07-20T22:02:47.116Z,26.24
2018-07-20T22:05:18.049Z,26.23
2018-07-20T22:07:48.275Z,26.23
2018-07-20T22:10:17.512Z,26.21
2018-07-20T22:12:46.604Z,26.19
2018-07-20T22:15:15.792Z,26.18
2018-07-20T22:17:44.816Z,26.17
2018-07-20T22:20:13.900Z,26.16
2018-07-20T22:22:42.941Z,26.14
2018-07-20T22:25:13.010Z,26.15
2018-07-20T22:27:42.067Z,26.13
2018-07-20T22:30:11.581Z,26.13
2018-07-20T22:32:40.412Z,26.13
2018-07-20T22:35:09.724Z,26.11
2018-07-20T22:37:38.788Z,26.10
2018-07-20T22:40:07.862Z,26.09
2018-07-20T22:42:36.920Z,26.07
2018-07-20T22:45:05.951Z,26.08
2018-07-20T22:47:35.785Z,26.07
2018-07-20T22:50:06.400Z,26.06
2018-07-20T22:52:35.950Z,26.05
2018-07-20T22:55:06.030Z,26.03
2018-07-20T22:57:35.809Z,26.01
2018-07-20T23:00:06.116Z,25.98
2018-07-20T23:02:36.210Z,25.98
2018-07-20T23:05:06.409Z,25.93
2018-07-20T23:07:36.345Z,25.90
2018-07-20T23:10:06.473Z,25.87
2018-07-20T23:12:35.537Z,25.83
2018-07-20T23:15:04.940Z,25.80
2018-07-20T23:17:34.336Z,25.76
2018-07-20T23:20:03.794Z,25.72
2018-07-20T23:22:33.000Z,25.66
2018-07-20T23:25:02.049Z,25.61
2018-07-20T23:27:31.165Z,25.55
2018-07-20T23:30:00.223Z,25.46
2018-07-20T23:32:29.315Z,25.38
2018-07-20T23:34:58.440Z,25.28
2018-07-20T23:37:27.515Z,25.22
2018-07-20T23:39:56.575Z,25.13
2018-07-20T23:42:25.665Z,25.04
2018-07-20T23:44:54.748Z,24.95
2018-07-20T23:47:23.822Z,24.87
2018-07-20T23:49:53.013Z,24.79
2018-07-20T23:52:22.067Z,24.72
2018-07-20T23:54:51.552Z,24.64
2018-07-20T23:57:20.643Z,24.58
2018-07-20T23:59:49.799Z,24.54
